createdAt,value
2023-05-02T00:00:54.741Z,97999.41
2023-05-02T00:03:27.771Z,97995.09
2023-05-02T00:06:01.516Z,97994.81
2023-05-02T00:08:34.518Z,97991.59
2023-05-02T00:11:07.474Z,97997.50
2023-05-02T00:13:40.433Z,97990.66
2023-05-02T00:16:14.675Z,97989.88
2023-05-02T00:18:47.628Z,97990.75
2023-05-02T00:21:20.600Z,98000.44
2023-05-02T00:23:53.508Z,97988.47
2023-05-02T00:26:26.816Z,97990.84
2023-05-02T00:29:00.675Z,97994.22
2023-05-02T00:31:35.501Z,97995.84
2023-05-02T00:34:08.489Z,97993.22
2023-05-02T00:36:41.401Z,98000.69
2023-05-02T00:39:14.345Z,97994.59
2023-05-02T00:41:47.278Z,97993.59
2023-05-02T00:44:20.208Z,97990.88
2023-05-02T00:46:55.299Z,97992.66
2023-05-02T00:49:28.468Z,97987.72
2023-05-02T00:52:02.511Z,97989.13
2023-05-02T00:54:35.553Z,97988.94
2023-05-02T00:57:08.543Z,97994.09
2023-05-02T00:59:41.502Z,97987.84
2023-05-02T01:02:29.616Z,97994.59
2023-05-02T01:05:12.617Z,97998.75
2023-05-02T01:08:09.788Z,98002.25
2023-05-02T01:10:54.324Z,98000.50
2023-05-02T01:13:33.078Z,98004.44
2023-05-02T01:16:08.885Z,98000.00
2023-05-02T01:18:45.267Z,98012.31
2023-05-02T01:21:18.460Z,98017.97
2023-05-02T01:24:04.289Z,98013.56
2023-05-02T01:27:02.600Z,98025.38
2023-05-02T01:29:38.750Z,98021.13
2023-05-02T01:32:13.380Z,98019.06
2023-05-02T01:34:49.863Z,98015.25
2023-05-02T01:37:25.284Z,98019.94
2023-05-02T01:40:00.249Z,98018.19
2023-05-02T01:42:37.448Z,98019.84
2023-05-02T01:45:13.882Z,98011.13
2023-05-02T01:47:48.793Z,98019.53
2023-05-02T01:50:25.429Z,98023.88
2023-05-02T01:53:01.190Z,98023.09
2023-05-02T01:55:37.134Z,98026.31
2023-05-02T01:58:11.856Z,98024.63
2023-05-02T02:00:47.398Z,98022.50
2023-05-02T02:03:22.238Z,98032.50
2023-05-02T02:05:57.702Z,98034.94
2023-05-02T02:08:30.672Z,98038.47
2023-05-02T02:11:13.027Z,98037.38
2023-05-02T02:13:51.160Z,98040.69
2023-05-02T02:16:30.703Z,98044.72
2023-05-02T02:19:08.756Z,98043.06
2023-05-02T02:21:44.184Z,98045.41
2023-05-02T02:24:19.861Z,98050.88
2023-05-02T02:26:52.899Z,98046.56
2023-05-02T02:29:25.854Z,98051.56
2023-05-02T02:32:00.154Z,98060.97
2023-05-02T02:34:33.259Z,98055.66
2023-05-02T02:37:15.480Z,98064.09
2023-05-02T02:40:01.944Z,98060.75
2023-05-02T02:42:42.186Z,98065.47
2023-05-02T02:45:28.340Z,98070.44
2023-05-02T02:48:16.482Z,98069.34
2023-05-02T02:51:15.966Z,98069.72
2023-05-02T02:53:59.535Z,98077.25
2023-05-02T02:56:39.252Z,98076.19
2023-05-02T02:59:20.648Z,98079.28
2023-05-02T03:02:03.621Z,98088.72
2023-05-02T03:04:41.999Z,98089.25
2023-05-02T03:07:15.014Z,98092.47
2023-05-02T03:09:49.505Z,98091.31
2023-05-02T03:12:22.745Z,98095.28
2023-05-02T03:15:06.598Z,98098.69
2023-05-02T03:17:39.596Z,98100.38
2023-05-02T03:20:13.929Z,98101.25
2023-05-02T03:22:46.915Z,98104.34
2023-05-02T03:25:19.869Z,98106.34
2023-05-02T03:27:54.032Z,98107.34
2023-05-02T03:30:27.003Z,98115.19
2023-05-02T03:33:00.555Z,98118.53
2023-05-02T03:35:34.900Z,98118.31
2023-05-02T03:38:07.793Z,98122.06
2023-05-02T03:40:40.712Z,98119.63
2023-05-02T03:43:13.647Z,98123.84
2023-05-02T03:45:48.158Z,98126.50
2023-05-02T03:48:21.774Z,98129.34
2023-05-02T03:50:56.610Z,98129.13
2023-05-02T03:53:30.539Z,98138.66
2023-05-02T03:56:03.526Z,98136.19
2023-05-02T03:58:37.262Z,98144.84
2023-05-02T04:01:15.861Z,98135.97
2023-05-02T04:03:48.892Z,98151.47
2023-05-02T04:06:23.348Z,98157.44
2023-05-02T04:08:57.834Z,98155.66
2023-05-02T04:11:30.860Z,98157.06
2023-05-02T04:14:04.823Z,98160.63
2023-05-02T04:16:38.055Z,98163.63
2023-05-02T04:19:11.887Z,98159.41
2023-05-02T04:21:46.831Z,98167.06
2023-05-02T04:24:19.781Z,98171.63
2023-05-02T04:26:52.731Z,98177.59
2023-05-02T04:29:25.810Z,98176.75
2023-05-02T04:31:58.769Z,98176.63
2023-05-02T04:34:31.758Z,98186.59
2023-05-02T04:37:06.297Z,98193.16
2023-05-02T04:39:39.276Z,98195.19
2023-05-02T04:42:12.246Z,98193.97
2023-05-02T04:44:45.191Z,98203.81
2023-05-02T04:47:18.128Z,98197.84
2023-05-02T04:49:51.054Z,98199.28
2023-05-02T04:52:25.482Z,98203.06
2023-05-02T04:54:58.423Z,98199.53
2023-05-02T04:57:31.399Z,98203.75
2023-05-02T05:00:05.676Z,98209.50
2023-05-02T05:02:39.024Z,98206.50
2023-05-02T05:05:12.175Z,98208.47
2023-05-02T05:07:46.490Z,98214.56
2023-05-02T05:10:19.442Z,98212.00
2023-05-02T05:12:53.423Z,98211.22
2023-05-02T05:15:27.316Z,98218.16
2023-05-02T05:18:00.329Z,98216.47
2023-05-02T05:20:33.533Z,98219.38
2023-05-02T05:23:07.812Z,98226.69
2023-05-02T05:25:42.318Z,98223.75
2023-05-02T05:28:16.472Z,98224.28
2023-05-02T05:30:49.389Z,98229.72
2023-05-02T05:33:22.425Z,98236.50
2023-05-02T05:35:55.426Z,98239.03
2023-05-02T05:38:29.750Z,98238.41
2023-05-02T05:41:02.905Z,98241.06
2023-05-02T05:43:37.974Z,98239.25
2023-05-02T05:46:11.283Z,98238.91
2023-05-02T05:48:44.335Z,98253.56
2023-05-02T05:51:17.383Z,98252.06
2023-05-02T05:53:51.886Z,98259.97
2023-05-02T05:56:24.868Z,98258.84
2023-05-02T05:58:57.880Z,98257.47
2023-05-02T06:01:31.430Z,98265.16
2023-05-02T06:04:05.091Z,98275.44
2023-05-02T06:06:38.307Z,98278.28
2023-05-02T06:09:12.845Z,98285.50
2023-05-02T06:11:46.242Z,98279.38
2023-05-02T06:14:19.219Z,98280.06
2023-05-02T06:16:52.247Z,98287.63
2023-05-02T06:19:25.268Z,98288.41
2023-05-02T06:21:58.255Z,98293.31
2023-05-02T06:24:32.561Z,98294.78
2023-05-02T06:27:05.609Z,98299.31
2023-05-02T06:29:38.608Z,98304.84
2023-05-02T06:32:11.545Z,98304.22
2023-05-02T06:34:44.530Z,98301.59
2023-05-02T06:37:17.498Z,98313.28
2023-05-02T06:39:51.835Z,98309.66
2023-05-02T06:42:25.049Z,98313.22
2023-05-02T06:44:58.014Z,98312.34
2023-05-02T06:47:30.991Z,98320.03
2023-05-02T06:50:04.192Z,98314.50
2023-05-02T06:52:37.175Z,98322.66
2023-05-02T06:55:11.568Z,98321.84
2023-05-02T06:57:44.681Z,98318.06
2023-05-02T07:00:18.574Z,98323.00
2023-05-02T07:02:51.557Z,98322.56
2023-05-02T07:05:24.549Z,98326.53
2023-05-02T07:07:57.476Z,98338.56
2023-05-02T07:10:31.992Z,98326.91
2023-05-02T07:13:05.002Z,98334.88
2023-05-02T07:15:37.969Z,98343.25
2023-05-02T07:18:11.030Z,98343.91
2023-05-02T07:20:44.053Z,98342.41
2023-05-02T07:23:16.976Z,98345.13
2023-05-02T07:25:51.325Z,98343.09
2023-05-02T07:28:24.242Z,98334.53
2023-05-02T07:30:57.189Z,98339.34
2023-05-02T07:33:30.469Z,98343.34
2023-05-02T07:36:03.606Z,98343.50
2023-05-02T07:38:36.585Z,98347.59
2023-05-02T07:41:10.879Z,98346.81
2023-05-02T07:43:43.844Z,98348.94
2023-05-02T07:46:16.902Z,98341.34
2023-05-02T07:48:49.860Z,98350.69
2023-05-02T07:51:22.841Z,98345.75
2023-05-02T07:53:58.431Z,98352.91
2023-05-02T07:56:33.310Z,98352.22
2023-05-02T07:59:06.238Z,98355.91
2023-05-02T08:01:39.645Z,98360.31
2023-05-02T08:04:13.148Z,98354.94
2023-05-02T08:06:46.394Z,98354.31
2023-05-02T08:09:19.424Z,98362.16
2023-05-02T08:11:53.774Z,98353.34
2023-05-02T08:14:26.718Z,98362.56
2023-05-02T08:17:00.108Z,98357.09
2023-05-02T08:19:33.123Z,98363.06
2023-05-02T08:22:06.081Z,98360.94
2023-05-02T08:24:39.086Z,98366.88
2023-05-02T08:27:13.356Z,98372.91
2023-05-02T08:29:46.289Z,98376.47
2023-05-02T08:32:19.320Z,98376.84
2023-05-02T08:34:55.918Z,98374.31
2023-05-02T08:37:28.880Z,98380.44
2023-05-02T08:40:02.652Z,98378.50
2023-05-02T08:42:37.485Z,98383.56
2023-05-02T08:45:15.576Z,98381.78
2023-05-02T08:47:50.674Z,98388.00
2023-05-02T08:50:24.254Z,98387.88
2023-05-02T08:52:58.173Z,98386.09
2023-05-02T08:55:31.353Z,98390.16
2023-05-02T08:58:06.040Z,98393.63
2023-05-02T09:00:41.546Z,98390.25
2023-05-02T09:03:27.664Z,98386.72
2023-05-02T09:06:08.036Z,98387.75
2023-05-02T09:08:42.214Z,98389.16
2023-05-02T09:11:16.104Z,98395.19
2023-05-02T09:13:52.224Z,98398.00
2023-05-02T09:16:27.469Z,98394.78
2023-05-02T09:19:01.151Z,98400.25
2023-05-02T09:21:40.024Z,98398.88
2023-05-02T09:24:18.167Z,98399.16
2023-05-02T09:27:02.732Z,98402.44
2023-05-02T09:29:38.728Z,98402.31
2023-05-02T09:32:11.842Z,98409.19
2023-05-02T09:35:09.265Z,98400.31
2023-05-02T09:37:42.192Z,98403.91
2023-05-02T09:40:15.982Z,98401.13
2023-05-02T09:42:49.036Z,98401.81
2023-05-02T09:45:25.565Z,98397.59
2023-05-02T09:48:03.840Z,98393.63
2023-05-02T09:50:39.029Z,98393.97
2023-05-02T09:53:12.014Z,98396.25
2023-05-02T09:55:45.022Z,98395.59
2023-05-02T09:58:23.392Z,98386.97
2023-05-02T10:00:59.176Z,98391.69
2023-05-02T10:03:32.465Z,98386.66
2023-05-02T10:06:10.159Z,98386.13
2023-05-02T10:08:45.324Z,98387.97
2023-05-02T10:11:18.560Z,98387.53
2023-05-02T10:13:52.011Z,98390.75
2023-05-02T10:16:31.510Z,98388.31
2023-05-02T10:19:10.785Z,98392.03
2023-05-02T10:21:45.203Z,98382.91
2023-05-02T10:24:18.926Z,98389.63
2023-05-02T10:26:52.865Z,98385.41
2023-05-02T10:29:29.146Z,98390.19
2023-05-02T10:32:06.150Z,98392.22
2023-05-02T10:34:41.886Z,98385.50
2023-05-02T10:37:14.897Z,98389.63
2023-05-02T10:39:47.973Z,98379.47
2023-05-02T10:42:21.933Z,98378.13
2023-05-02T10:44:55.091Z,98383.00
2023-05-02T10:47:30.444Z,98388.28
2023-05-02T10:50:05.281Z,98387.31
2023-05-02T10:52:41.212Z,98376.56
2023-05-02T10:55:22.541Z,98377.63
2023-05-02T10:58:23.695Z,98372.28
2023-05-02T11:01:42.134Z,98367.47
2023-05-02T11:04:16.497Z,98367.47
2023-05-02T11:07:21.081Z,98364.28
2023-05-02T11:09:54.140Z,98358.75
2023-05-02T11:12:46.683Z,98358.38
2023-05-02T11:15:58.167Z,98363.53
2023-05-02T11:19:02.070Z,98360.78
2023-05-02T11:21:38.963Z,98358.34
2023-05-02T11:24:39.374Z,98364.19
2023-05-02T11:27:40.812Z,98364.41
2023-05-02T11:30:14.168Z,98367.38
2023-05-02T11:33:17.687Z,98362.00
2023-05-02T11:35:51.144Z,98361.28
2023-05-02T11:38:24.233Z,98367.72
2023-05-02T11:40:59.964Z,98362.34
2023-05-02T11:43:33.202Z,98358.78
2023-05-02T11:46:08.275Z,98357.06
2023-05-02T11:48:43.140Z,98359.97
2023-05-02T11:51:24.237Z,98356.47
2023-05-02T11:53:57.528Z,98350.41
2023-05-02T11:56:30.515Z,98350.97
2023-05-02T11:59:05.317Z,98354.38
2023-05-02T12:01:38.314Z,98343.63
2023-05-02T12:04:12.637Z,98345.81
2023-05-02T12:06:56.820Z,98348.38
2023-05-02T12:09:29.870Z,98345.06
2023-05-02T12:12:03.260Z,98340.88
2023-05-02T12:14:37.973Z,98347.31
2023-05-02T12:17:11.779Z,98344.22
2023-05-02T12:19:46.310Z,98349.47
2023-05-02T12:22:19.437Z,98352.19
2023-05-02T12:24:53.469Z,98350.25
2023-05-02T12:27:27.324Z,98351.41
2023-05-02T12:30:00.978Z,98358.59
2023-05-02T12:32:35.876Z,98356.16
2023-05-02T12:35:23.066Z,98361.66
2023-05-02T12:37:57.075Z,98354.81
2023-05-02T12:40:29.973Z,98361.63
2023-05-02T12:43:06.197Z,98363.53
2023-05-02T12:45:39.217Z,98359.78
2023-05-02T12:48:26.429Z,98368.50
2023-05-02T12:51:01.201Z,98362.66
2023-05-02T12:53:42.132Z,98380.13
2023-05-02T12:56:16.959Z,98380.09
2023-05-02T12:58:50.902Z,98384.59
2023-05-02T13:01:24.039Z,98379.94
2023-05-02T13:03:57.069Z,98391.06
2023-05-02T13:06:31.654Z,98387.63
2023-05-02T13:09:05.072Z,98380.06
2023-05-02T13:11:39.361Z,98379.88
2023-05-02T13:14:12.345Z,98376.00
2023-05-02T13:16:45.437Z,98383.28
2023-05-02T13:19:18.511Z,98382.38
2023-05-02T13:21:52.831Z,98393.06
2023-05-02T13:24:25.958Z,98395.50
2023-05-02T13:26:59.033Z,98406.59
2023-05-02T13:29:32.021Z,98402.84
2023-05-02T13:32:05.239Z,98408.47
2023-05-02T13:34:38.441Z,98406.44
2023-05-02T13:37:12.780Z,98412.13
2023-05-02T13:39:45.956Z,98413.19
2023-05-02T13:42:18.920Z,98405.44
2023-05-02T13:44:52.167Z,98413.78
2023-05-02T13:47:26.276Z,98407.88
2023-05-02T13:49:59.553Z,98406.56
2023-05-02T13:52:34.187Z,98404.97
2023-05-02T13:55:08.170Z,98398.56
2023-05-02T13:57:41.213Z,98398.31
2023-05-02T14:00:16.176Z,98402.91
2023-05-02T14:02:49.320Z,98399.50
2023-05-02T14:05:22.714Z,98409.41
2023-05-02T14:07:57.061Z,98401.63
2023-05-02T14:10:30.051Z,98400.75
2023-05-02T14:13:03.004Z,98393.06
2023-05-02T14:15:37.493Z,98389.22
2023-05-02T14:18:10.507Z,98391.41
2023-05-02T14:20:43.743Z,98388.25
2023-05-02T14:23:18.159Z,98377.94
2023-05-02T14:25:51.185Z,98387.31
2023-05-02T14:28:24.226Z,98377.53
2023-05-02T14:30:57.400Z,98386.00
2023-05-02T14:33:30.361Z,98388.19
2023-05-02T14:36:03.823Z,98386.94
2023-05-02T14:38:38.186Z,98391.28
2023-05-02T14:41:11.449Z,98385.19
2023-05-02T14:43:44.570Z,98392.16
2023-05-02T14:46:17.594Z,98387.88
2023-05-02T14:48:50.586Z,98387.88
2023-05-02T14:51:23.563Z,98392.13
2023-05-02T14:53:57.880Z,98392.34
2023-05-02T14:56:31.103Z,98393.31
2023-05-02T14:59:04.201Z,98394.75
2023-05-02T15:01:37.521Z,98389.84
2023-05-02T15:04:11.296Z,98371.81
2023-05-02T15:06:44.548Z,98384.09
2023-05-02T15:09:18.998Z,98387.16
2023-05-02T15:11:51.977Z,98379.78
2023-05-02T15:14:24.998Z,98380.91
2023-05-02T15:16:58.068Z,98382.47
2023-05-02T15:19:31.082Z,98380.72
2023-05-02T15:22:04.148Z,98380.72
2023-05-02T15:24:38.467Z,98381.59
2023-05-02T15:27:11.940Z,98381.72
2023-05-02T15:29:44.930Z,98385.56
2023-05-02T15:32:18.146Z,98384.72
2023-05-02T15:34:51.271Z,98390.75
2023-05-02T15:37:24.232Z,98391.84
2023-05-02T15:39:59.957Z,98405.88
2023-05-02T15:42:36.919Z,98402.31
2023-05-02T15:45:13.866Z,98403.53
2023-05-02T15:47:46.894Z,98414.84
2023-05-02T15:50:20.618Z,98407.63
2023-05-02T15:52:54.430Z,98405.56
2023-05-02T15:55:28.755Z,98409.66
2023-05-02T15:58:01.833Z,98411.06
2023-05-02T16:00:34.820Z,98409.28
2023-05-02T16:03:07.837Z,98417.94
2023-05-02T16:05:41.250Z,98419.75
2023-05-02T16:08:14.295Z,98426.31
2023-05-02T16:10:48.693Z,98428.75
2023-05-02T16:13:22.242Z,98431.50
2023-05-02T16:15:55.676Z,98430.69
2023-05-02T16:18:28.950Z,98436.41
2023-05-02T16:21:01.966Z,98432.09
2023-05-02T16:23:34.950Z,98428.44
2023-05-02T16:26:10.147Z,98418.19
2023-05-02T16:28:43.153Z,98430.94
2023-05-02T16:31:16.194Z,98430.44
2023-05-02T16:33:49.256Z,98432.94
2023-05-02T16:36:22.240Z,98434.41
2023-05-02T16:38:55.252Z,98432.66
2023-05-02T16:41:29.552Z,98436.19
2023-05-02T16:44:02.540Z,98432.13
2023-05-02T16:46:35.605Z,98432.50
2023-05-02T16:49:08.722Z,98432.06
2023-05-02T16:51:41.908Z,98427.94
2023-05-02T16:54:14.976Z,98428.44
2023-05-02T16:56:49.438Z,98420.69
2023-05-02T16:59:22.449Z,98422.72
2023-05-02T17:01:56.941Z,98427.88
2023-05-02T17:04:30.311Z,98426.34
2023-05-02T17:07:03.279Z,98422.72
2023-05-02T17:09:36.979Z,98427.09
2023-05-02T17:12:12.002Z,98425.53
2023-05-02T17:14:44.998Z,98433.84
2023-05-02T17:17:19.039Z,98434.72
2023-05-02T17:19:52.249Z,98439.16
2023-05-02T17:22:25.707Z,98433.66
2023-05-02T17:24:58.856Z,98431.88
2023-05-02T17:27:33.719Z,98439.56
2023-05-02T17:30:08.513Z,98435.16
2023-05-02T17:32:41.761Z,98434.09
2023-05-02T17:35:16.267Z,98442.66
2023-05-02T17:37:49.264Z,98450.34
2023-05-02T17:40:22.647Z,98457.66
2023-05-02T17:42:58.769Z,98457.38
2023-05-02T17:45:31.976Z,98461.44
2023-05-02T17:48:06.089Z,98460.31
2023-05-02T17:50:39.437Z,98462.47
2023-05-02T17:53:12.567Z,98467.34
2023-05-02T17:55:45.760Z,98471.53
2023-05-02T17:58:20.115Z,98468.72
2023-05-02T18:00:53.081Z,98477.06
2023-05-02T18:03:26.118Z,98479.31
2023-05-02T18:05:59.194Z,98480.66
2023-05-02T18:08:32.194Z,98482.97
2023-05-02T18:11:05.377Z,98480.97
2023-05-02T18:13:40.613Z,98482.53
2023-05-02T18:16:14.724Z,98484.03
2023-05-02T18:18:47.804Z,98488.09
2023-05-02T18:21:25.817Z,98487.19
2023-05-02T18:23:58.773Z,98487.56
2023-05-02T18:26:31.963Z,98492.59
2023-05-02T18:29:06.392Z,98490.69
2023-05-02T18:31:40.359Z,98500.84
2023-05-02T18:34:13.545Z,98507.53
2023-05-02T18:36:46.534Z,98505.66
2023-05-02T18:39:21.463Z,98516.69
2023-05-02T18:41:54.480Z,98516.59
2023-05-02T18:44:28.937Z,98518.13
2023-05-02T18:47:02.023Z,98523.97
2023-05-02T18:49:35.001Z,98520.41
2023-05-02T18:52:07.991Z,98526.31
2023-05-02T18:54:41.043Z,98532.78
2023-05-02T18:57:14.375Z,98544.78
2023-05-02T18:59:48.725Z,98543.63
2023-05-02T19:02:22.553Z,98545.16
2023-05-02T19:04:55.695Z,98539.00
2023-05-02T19:07:28.801Z,98543.97
2023-05-02T19:10:01.838Z,98548.03
2023-05-02T19:12:34.897Z,98546.78
2023-05-02T19:15:10.891Z,98556.63
2023-05-02T19:17:44.323Z,98552.41
2023-05-02T19:20:18.205Z,98553.78
2023-05-02T19:22:52.858Z,98560.88
2023-05-02T19:25:28.806Z,98559.28
2023-05-02T19:28:01.779Z,98569.84
2023-05-02T19:30:36.584Z,98567.72
2023-05-02T19:33:09.810Z,98572.66
2023-05-02T19:35:42.862Z,98577.28
2023-05-02T19:38:15.810Z,98581.84
2023-05-02T19:40:48.773Z,98584.16
2023-05-02T19:43:21.738Z,98588.22
2023-05-02T19:45:56.799Z,98593.94
2023-05-02T19:48:29.896Z,98594.13
2023-05-02T19:51:04.461Z,98603.94
2023-05-02T19:53:38.673Z,98602.66
2023-05-02T19:56:11.695Z,98611.88
2023-05-02T19:58:44.707Z,98613.25
2023-05-02T20:01:19.104Z,98618.03
2023-05-02T20:03:52.186Z,98621.97
2023-05-02T20:06:25.515Z,98628.09
2023-05-02T20:08:58.599Z,98634.03
2023-05-02T20:11:32.735Z,98632.66
2023-05-02T20:14:05.747Z,98636.03
2023-05-02T20:16:40.204Z,98640.94
2023-05-02T20:19:14.113Z,98636.13
2023-05-02T20:21:47.078Z,98644.72
2023-05-02T20:24:20.065Z,98639.41
2023-05-02T20:26:53.024Z,98644.31
2023-05-02T20:29:26.166Z,98651.44
2023-05-02T20:32:00.631Z,98649.50
2023-05-02T20:34:36.210Z,98659.34
2023-05-02T20:37:10.173Z,98659.75
2023-05-02T20:39:43.146Z,98659.16
2023-05-02T20:42:23.372Z,98657.69
2023-05-02T20:44:57.722Z,98659.13
2023-05-02T20:47:33.186Z,98663.75
2023-05-02T20:50:08.437Z,98671.94
2023-05-02T20:52:41.445Z,98659.09
2023-05-02T20:55:14.437Z,98661.81
2023-05-02T20:57:51.094Z,98649.22
2023-05-02T21:00:24.355Z,98648.81
2023-05-02T21:02:58.773Z,98655.28
2023-05-02T21:05:31.771Z,98651.13
2023-05-02T21:08:04.877Z,98658.47
2023-05-02T21:10:37.870Z,98656.50
2023-05-02T21:13:10.844Z,98655.22
2023-05-02T21:15:44.049Z,98659.66
2023-05-02T21:18:18.401Z,98655.47
2023-05-02T21:20:51.393Z,98658.56
2023-05-02T21:23:24.465Z,98663.03
2023-05-02T21:25:57.587Z,98665.97
2023-05-02T21:28:30.659Z,98671.41
2023-05-02T21:31:03.871Z,98673.53
2023-05-02T21:33:38.191Z,98666.22
2023-05-02T21:36:12.140Z,98667.13
2023-05-02T21:38:45.122Z,98659.38
2023-05-02T21:41:18.298Z,98664.97
2023-05-02T21:43:51.613Z,98660.16
2023-05-02T21:46:24.633Z,98664.75
2023-05-02T21:48:59.007Z,98667.38
2023-05-02T21:51:34.016Z,98666.72
2023-05-02T21:54:07.355Z,98669.63
2023-05-02T21:56:40.299Z,98676.38
2023-05-02T21:59:13.253Z,98672.38
2023-05-02T22:01:46.224Z,98674.28
2023-05-02T22:04:21.165Z,98663.19
2023-05-02T22:06:54.241Z,98664.97
2023-05-02T22:09:27.224Z,98661.41
2023-05-02T22:12:00.292Z,98658.22
2023-05-02T22:14:41.595Z,98655.31
2023-05-02T22:17:18.883Z,98656.97
2023-05-02T22:19:53.249Z,98655.09
2023-05-02T22:22:26.301Z,98654.50
2023-05-02T22:24:59.267Z,98662.38
2023-05-02T22:27:32.238Z,98661.13
2023-05-02T22:30:06.341Z,98656.91
2023-05-02T22:32:39.372Z,98657.28
2023-05-02T22:35:13.722Z,98666.03
2023-05-02T22:37:46.656Z,98669.38
2023-05-02T22:40:19.983Z,98669.59
2023-05-02T22:42:53.047Z,98672.13
2023-05-02T22:45:27.088Z,98671.13
2023-05-02T22:48:00.128Z,98678.91
2023-05-02T22:50:34.788Z,98679.88
2023-05-02T22:53:09.415Z,98676.44
2023-05-02T22:55:42.660Z,98678.78
2023-05-02T22:58:15.916Z,98684.66
2023-05-02T23:00:48.965Z,98680.22
2023-05-02T23:03:22.336Z,98684.22
2023-05-02T23:05:56.870Z,98685.06
2023-05-02T23:08:29.895Z,98691.28
2023-05-02T23:11:02.853Z,98688.78
2023-05-02T23:13:37.126Z,98690.78
2023-05-02T23:16:10.154Z,98695.09
2023-05-02T23:18:43.165Z,98691.84
2023-05-02T23:21:18.120Z,98698.06
2023-05-02T23:23:51.059Z,98690.56
2023-05-02T23:26:23.987Z,98693.09
2023-05-02T23:28:57.049Z,98691.44
2023-05-02T23:31:30.151Z,98696.31
2023-05-02T23:34:03.229Z,98695.72
2023-05-02T23:36:37.667Z,98705.03
2023-05-02T23:39:10.668Z,98698.34
2023-05-02T23:41:43.732Z,98696.69
2023-05-02T23:44:16.653Z,98704.09
2023-05-02T23:46:50.335Z,98703.72
2023-05-02T23:49:23.345Z,98704.13
2023-05-02T23:51:57.643Z,98705.03
2023-05-02T23:54:31.890Z,98704.03
2023-05-02T23:57:06.367Z,98703.44
2023-05-02T23:59:39.427Z,98706.75
